< < Back
Terminal Aerodrome Forecast


Current Version              Previous Versions:   1  2  3  4  5  6  7  8  9  

Terminal Aerodrome Forecast

533
FTUS44 KBMX 021900 AAA
TAFMGM
TAF AMD
KMGM 021945Z 0220/0318 VRB04KT 4SM BR OVC007
     FM031300 VRB03KT 2SM BR OVC003
     FM031500 14004KT 5SM BR OVC008=

Latest METAR

806
SAUS80 KWBC 030000 RRD
MTRMGM
METAR KMGM 022353Z 00000KT 7SM BKN007 OVC027 16/14 A3025 RMK AO2 SLP244
60005 T01560139 10161 20139 58004


USA.gov is the U.S. government's official web portal to all federal, state and local government web resources and services.